createdAt,value
2019-01-26T00:01:01.046Z,96.40
2019-01-26T00:03:07.646Z,96.50
2019-01-26T00:05:15.706Z,96.50
2019-01-26T00:07:25.231Z,96.40
2019-01-26T00:09:35.119Z,96.60
2019-01-26T00:11:43.376Z,96.50
2019-01-26T00:13:50.410Z,96.50
2019-01-26T00:15:58.887Z,96.30
2019-01-26T00:18:05.266Z,96.50
2019-01-26T00:20:16.179Z,96.40
2019-01-26T00:22:27.956Z,96.30
2019-01-26T00:24:36.877Z,96.40
2019-01-26T00:26:46.730Z,96.10
2019-01-26T00:28:54.615Z,96.00
2019-01-26T00:31:05.608Z,96.00
2019-01-26T00:33:12.074Z,95.80
2019-01-26T00:35:22.435Z,95.90
2019-01-26T00:37:32.896Z,95.90
2019-01-26T00:39:41.259Z,95.80
2019-01-26T00:41:47.235Z,95.80
2019-01-26T00:43:54.870Z,95.90
2019-01-26T00:46:04.346Z,96.10
2019-01-26T00:48:13.014Z,96.00
2019-01-26T00:50:24.778Z,96.10
2019-01-26T00:52:32.746Z,96.60
2019-01-26T00:54:39.352Z,96.70
2019-01-26T00:56:46.331Z,96.90
2019-01-26T00:58:54.418Z,97.10
2019-01-26T01:01:00.856Z,97.20
2019-01-26T01:03:10.907Z,97.30
2019-01-26T01:05:20.657Z,97.50
2019-01-26T01:07:29.035Z,97.80
2019-01-26T01:09:42.205Z,97.80
2019-01-26T01:11:51.147Z,98.50
2019-01-26T01:14:01.459Z,98.50
2019-01-26T01:16:08.984Z,98.80
2019-01-26T01:18:17.382Z,99.10
2019-01-26T01:20:29.650Z,99.20
2019-01-26T01:22:40.279Z,99.70
2019-01-26T01:24:46.490Z,99.60
2019-01-26T01:26:54.170Z,99.60
2019-01-26T01:29:02.931Z,99.90
2019-01-26T01:31:11.281Z,99.90
2019-01-26T01:33:22.999Z,99.90
2019-01-26T01:35:33.019Z,99.90
2019-01-26T01:37:41.271Z,99.90
2019-01-26T01:39:50.955Z,99.90
2019-01-26T01:41:59.055Z,99.90
2019-01-26T01:44:07.442Z,99.90
2019-01-26T01:46:18.220Z,99.90
2019-01-26T01:48:27.351Z,99.90
2019-01-26T01:50:38.346Z,99.90
2019-01-26T01:52:48.363Z,99.90
2019-01-26T01:55:00.243Z,99.90
2019-01-26T01:57:06.894Z,99.90
2019-01-26T01:59:12.406Z,99.90
2019-01-26T02:01:19.723Z,99.90
2019-01-26T02:03:30.616Z,99.90
2019-01-26T02:05:39.787Z,99.90
2019-01-26T02:07:47.804Z,99.90
2019-01-26T02:09:57.962Z,99.90
2019-01-26T02:12:09.069Z,99.90
2019-01-26T02:14:26.627Z,99.90
2019-01-26T02:16:35.623Z,99.90
2019-01-26T02:18:45.674Z,99.90
2019-01-26T02:20:58.836Z,99.90
2019-01-26T02:23:08.535Z,99.90
2019-01-26T02:25:16.327Z,99.90
2019-01-26T02:27:26.507Z,99.90
2019-01-26T02:29:35.851Z,99.90
2019-01-26T02:31:45.706Z,99.90
2019-01-26T02:33:55.978Z,99.90
2019-01-26T02:36:03.924Z,99.90
2019-01-26T02:38:11.438Z,99.90
2019-01-26T02:40:24.793Z,99.90
2019-01-26T02:42:32.919Z,99.90
2019-01-26T02:44:40.961Z,99.90
2019-01-26T02:46:49.999Z,99.90
2019-01-26T02:48:58.373Z,99.90
2019-01-26T02:51:07.692Z,99.90
2019-01-26T02:53:18.987Z,99.90
2019-01-26T02:55:25.067Z,99.90
2019-01-26T02:57:34.954Z,99.90
2019-01-26T02:59:43.868Z,99.90
2019-01-26T03:01:52.843Z,99.90
2019-01-26T03:04:02.799Z,99.90
2019-01-26T03:06:13.351Z,99.90
2019-01-26T03:08:23.599Z,99.90
2019-01-26T03:10:33.977Z,99.90
2019-01-26T03:12:46.814Z,99.90
2019-01-26T03:14:56.941Z,99.90
2019-01-26T03:17:06.319Z,99.90
2019-01-26T03:19:16.668Z,99.90
2019-01-26T03:21:25.487Z,99.90
2019-01-26T03:23:33.853Z,99.90
2019-01-26T03:25:44.187Z,99.90
2019-01-26T03:27:51.004Z,99.90
2019-01-26T03:30:01.563Z,99.90
2019-01-26T03:32:11.046Z,99.90
2019-01-26T03:34:21.963Z,99.90
2019-01-26T03:36:31.886Z,99.90
2019-01-26T03:38:40.955Z,99.90
2019-01-26T03:40:50.755Z,99.90
2019-01-26T03:42:58.170Z,99.90
2019-01-26T03:45:09.386Z,99.90
2019-01-26T03:47:18.091Z,99.90
2019-01-26T03:49:25.913Z,99.90
2019-01-26T03:51:35.257Z,99.90
2019-01-26T03:53:44.154Z,99.90
2019-01-26T03:55:51.960Z,99.90
2019-01-26T03:58:00.778Z,99.90
2019-01-26T04:00:17.051Z,99.90
2019-01-26T04:02:28.175Z,99.90
2019-01-26T04:04:39.048Z,99.90
2019-01-26T04:06:51.003Z,99.90
2019-01-26T04:09:00.944Z,99.90
2019-01-26T04:11:09.858Z,99.90
2019-01-26T04:13:18.125Z,99.90
2019-01-26T04:15:27.215Z,99.90
2019-01-26T04:17:36.103Z,99.90
2019-01-26T04:19:44.994Z,99.90
2019-01-26T04:21:53.939Z,99.90
2019-01-26T04:24:03.381Z,99.90
2019-01-26T04:26:13.260Z,99.90
2019-01-26T04:28:22.419Z,99.90
2019-01-26T04:30:29.963Z,99.90
2019-01-26T04:32:37.902Z,99.90
2019-01-26T04:34:48.172Z,99.90
2019-01-26T04:36:57.241Z,99.90
2019-01-26T04:39:07.372Z,99.90
2019-01-26T04:41:17.260Z,99.90
2019-01-26T04:43:29.171Z,99.90
2019-01-26T04:45:40.396Z,99.90
2019-01-26T04:47:50.370Z,99.90
2019-01-26T04:50:01.674Z,99.90
2019-01-26T04:52:08.244Z,99.90
2019-01-26T04:54:19.831Z,99.90
2019-01-26T04:56:28.670Z,99.90
2019-01-26T04:58:34.404Z,99.90
2019-01-26T05:00:39.467Z,99.90
2019-01-26T05:02:45.756Z,99.90
2019-01-26T05:04:51.667Z,99.90
2019-01-26T05:06:57.007Z,99.90
2019-01-26T05:09:05.430Z,99.90
2019-01-26T05:11:19.878Z,99.90
2019-01-26T05:13:30.765Z,99.90
2019-01-26T05:15:38.795Z,99.90
2019-01-26T05:17:46.662Z,99.90
2019-01-26T05:19:54.550Z,99.90
2019-01-26T05:22:03.150Z,99.90
2019-01-26T05:24:12.463Z,99.90
2019-01-26T05:26:23.987Z,99.90
2019-01-26T05:28:32.462Z,99.90
2019-01-26T05:30:42.595Z,99.90
2019-01-26T05:32:52.554Z,99.90
2019-01-26T05:35:03.531Z,99.90
2019-01-26T05:37:12.396Z,99.90
2019-01-26T05:39:20.060Z,99.90
2019-01-26T05:41:27.574Z,99.90
2019-01-26T05:43:37.612Z,99.90
2019-01-26T05:45:46.442Z,99.90
2019-01-26T05:47:58.955Z,99.90
2019-01-26T05:50:07.299Z,99.90
2019-01-26T05:52:17.212Z,99.90
2019-01-26T05:54:25.527Z,99.90
2019-01-26T05:56:36.695Z,99.90
2019-01-26T05:58:45.181Z,99.90
2019-01-26T06:01:06.243Z,99.90
2019-01-26T06:03:14.938Z,99.90
2019-01-26T06:05:24.778Z,99.90
2019-01-26T06:07:34.994Z,99.90
2019-01-26T06:09:42.304Z,99.90
2019-01-26T06:11:52.235Z,99.90
2019-01-26T06:14:00.764Z,99.90
2019-01-26T06:16:10.283Z,99.90
2019-01-26T06:18:20.685Z,99.90
2019-01-26T06:20:33.134Z,99.90
2019-01-26T06:22:42.507Z,99.90
2019-01-26T06:24:52.751Z,99.90
2019-01-26T06:27:02.538Z,99.90
2019-01-26T06:29:09.318Z,99.90
2019-01-26T06:31:13.746Z,99.90
2019-01-26T06:33:22.586Z,99.90
2019-01-26T06:35:31.002Z,99.90
2019-01-26T06:37:38.490Z,99.90
2019-01-26T06:39:48.299Z,99.90
2019-01-26T06:41:59.258Z,99.90
2019-01-26T06:44:12.118Z,99.90
2019-01-26T06:46:21.754Z,99.90
2019-01-26T06:48:31.630Z,99.90
2019-01-26T06:50:40.730Z,99.90
2019-01-26T06:52:49.951Z,99.90
2019-01-26T06:54:56.090Z,99.90
2019-01-26T06:57:04.054Z,99.90
2019-01-26T06:59:12.620Z,99.90
2019-01-26T07:01:22.518Z,99.90
2019-01-26T07:03:35.308Z,99.90
2019-01-26T07:06:01.179Z,99.90
2019-01-26T07:08:09.450Z,99.90
2019-01-26T07:10:22.486Z,99.90
2019-01-26T07:12:31.450Z,99.90
2019-01-26T07:14:41.254Z,99.90
2019-01-26T07:16:49.624Z,99.90
2019-01-26T07:18:59.834Z,99.90
2019-01-26T07:21:07.836Z,99.90
2019-01-26T07:23:15.931Z,99.90
2019-01-26T07:25:21.291Z,99.90
2019-01-26T07:27:27.702Z,99.90
2019-01-26T07:29:36.674Z,99.90
2019-01-26T07:31:45.547Z,99.90
2019-01-26T07:33:55.343Z,99.90
2019-01-26T07:36:03.858Z,99.90
2019-01-26T07:38:15.781Z,99.90
2019-01-26T07:40:26.090Z,99.90
2019-01-26T07:42:35.870Z,99.90
2019-01-26T07:44:45.866Z,99.90
2019-01-26T07:46:55.286Z,99.90
2019-01-26T07:49:07.127Z,99.90
2019-01-26T07:51:17.099Z,99.90
2019-01-26T07:53:26.026Z,99.90
2019-01-26T07:55:34.924Z,99.90
2019-01-26T07:57:44.980Z,99.90
2019-01-26T07:59:53.098Z,99.90
2019-01-26T08:02:02.138Z,99.90
2019-01-26T08:04:13.807Z,99.90
2019-01-26T08:06:22.634Z,99.90
2019-01-26T08:08:31.255Z,99.90
2019-01-26T08:10:54.614Z,99.90
2019-01-26T08:13:05.546Z,99.90
2019-01-26T08:15:16.087Z,99.90
2019-01-26T08:17:29.215Z,99.90
2019-01-26T08:19:40.113Z,99.90
2019-01-26T08:21:53.162Z,99.90
2019-01-26T08:24:02.359Z,99.90
2019-01-26T08:26:09.196Z,99.90
2019-01-26T08:28:20.235Z,99.90
2019-01-26T08:30:29.536Z,99.90
2019-01-26T08:32:39.371Z,99.90
2019-01-26T08:34:46.315Z,99.90
2019-01-26T08:36:52.292Z,99.90
2019-01-26T08:39:04.067Z,99.90
2019-01-26T08:41:12.939Z,99.90
2019-01-26T08:43:23.522Z,99.90
2019-01-26T08:45:30.753Z,99.90
2019-01-26T08:47:40.560Z,99.90
2019-01-26T08:49:49.559Z,99.90
2019-01-26T08:51:58.673Z,99.90
2019-01-26T08:54:07.370Z,99.90
2019-01-26T08:56:15.283Z,99.90
2019-01-26T08:58:24.214Z,99.90
2019-01-26T09:00:30.927Z,99.90
2019-01-26T09:03:15.494Z,99.90
2019-01-26T09:05:25.739Z,99.90
2019-01-26T09:07:37.271Z,99.90
2019-01-26T09:09:45.750Z,99.90
2019-01-26T09:11:53.511Z,99.90
2019-01-26T09:14:01.754Z,99.90
2019-01-26T09:16:10.314Z,99.90
2019-01-26T09:18:18.231Z,99.90
2019-01-26T09:20:29.067Z,99.90
2019-01-26T09:22:41.050Z,99.90
2019-01-26T09:24:53.965Z,99.90
2019-01-26T09:27:03.308Z,99.90
2019-01-26T09:29:13.334Z,99.90
2019-01-26T09:31:22.183Z,99.90
2019-01-26T09:33:32.899Z,99.90
2019-01-26T09:35:41.835Z,99.90
2019-01-26T09:37:48.753Z,99.90
2019-01-26T09:39:55.075Z,99.90
2019-01-26T09:42:06.019Z,99.90
2019-01-26T09:44:14.927Z,99.90
2019-01-26T09:46:24.043Z,99.90
2019-01-26T09:48:31.494Z,99.90
2019-01-26T09:50:43.179Z,99.90
2019-01-26T09:52:53.915Z,99.90
2019-01-26T09:55:06.810Z,99.90
2019-01-26T09:57:14.035Z,99.90
2019-01-26T09:59:22.879Z,99.90
2019-01-26T10:01:31.014Z,99.90
2019-01-26T10:03:41.707Z,99.90
2019-01-26T10:05:50.634Z,99.90
2019-01-26T10:07:59.911Z,99.90
2019-01-26T10:10:09.702Z,99.90
2019-01-26T10:12:19.500Z,99.90
2019-01-26T10:14:27.027Z,99.90
2019-01-26T10:16:34.870Z,99.90
2019-01-26T10:18:40.555Z,99.90
2019-01-26T10:20:47.065Z,99.90
2019-01-26T10:22:51.818Z,99.90
2019-01-26T10:24:58.819Z,99.90
2019-01-26T10:27:07.979Z,99.90
2019-01-26T10:29:20.587Z,99.90
2019-01-26T10:31:31.982Z,99.90
2019-01-26T10:33:41.421Z,99.90
2019-01-26T10:36:19.006Z,99.90
2019-01-26T10:38:27.210Z,99.90
2019-01-26T10:40:45.466Z,99.90
2019-01-26T10:42:54.854Z,99.90
2019-01-26T10:45:04.314Z,99.90
2019-01-26T10:47:13.238Z,99.90
2019-01-26T10:49:20.567Z,99.90
2019-01-26T10:51:31.240Z,99.90
2019-01-26T10:53:39.738Z,99.90
2019-01-26T10:55:52.551Z,99.90
2019-01-26T10:58:01.819Z,99.90
2019-01-26T11:00:12.563Z,99.90
2019-01-26T11:02:20.991Z,99.90
2019-01-26T11:04:30.898Z,99.90
2019-01-26T11:06:40.691Z,99.90
2019-01-26T11:08:46.355Z,99.90
2019-01-26T11:10:51.513Z,99.90
2019-01-26T11:12:59.975Z,99.90
2019-01-26T11:15:10.346Z,99.90
2019-01-26T11:17:17.108Z,99.90
2019-01-26T11:19:27.354Z,99.90
2019-01-26T11:21:36.990Z,99.90
2019-01-26T11:23:46.823Z,99.90
2019-01-26T11:25:58.006Z,99.90
2019-01-26T11:28:12.327Z,99.90
2019-01-26T11:30:29.787Z,99.90
2019-01-26T11:35:11.091Z,99.90
2019-01-26T11:37:20.289Z,99.90
2019-01-26T11:39:32.898Z,99.90
2019-01-26T11:41:44.051Z,99.90
2019-01-26T11:43:54.346Z,99.90
2019-01-26T11:46:17.299Z,99.90
2019-01-26T11:48:30.035Z,99.90
2019-01-26T11:50:45.742Z,99.90
2019-01-26T11:52:55.654Z,99.90
2019-01-26T11:55:26.935Z,99.90
2019-01-26T11:57:38.650Z,99.90
2019-01-26T11:59:52.658Z,99.90
2019-01-26T12:02:11.157Z,99.90
2019-01-26T12:04:27.327Z,99.90
2019-01-26T12:06:57.047Z,99.90
2019-01-26T12:09:07.515Z,99.90
2019-01-26T12:11:15.625Z,99.90
2019-01-26T12:13:24.152Z,99.90
2019-01-26T12:15:33.427Z,99.90
2019-01-26T12:17:39.210Z,99.90
2019-01-26T12:19:48.448Z,99.90
2019-01-26T12:22:01.430Z,99.90
2019-01-26T12:24:13.790Z,99.90
2019-01-26T12:26:20.847Z,99.90
2019-01-26T12:28:29.333Z,99.90
2019-01-26T12:30:37.675Z,99.90
2019-01-26T12:32:45.099Z,99.90
2019-01-26T12:34:55.014Z,99.90
2019-01-26T12:37:07.343Z,99.90
2019-01-26T12:39:16.070Z,99.90
2019-01-26T12:41:24.250Z,99.90
2019-01-26T12:43:32.598Z,99.90
2019-01-26T12:45:38.046Z,99.90
2019-01-26T12:47:52.166Z,99.90
2019-01-26T12:50:02.379Z,99.90
2019-01-26T12:52:13.014Z,99.90
2019-01-26T12:54:24.923Z,99.90
2019-01-26T12:56:33.494Z,99.90
2019-01-26T12:58:42.563Z,99.90
2019-01-26T13:00:50.550Z,99.90
2019-01-26T13:03:01.328Z,99.90
2019-01-26T13:05:09.990Z,99.90
2019-01-26T13:07:18.978Z,99.90
2019-01-26T13:09:27.919Z,99.90
2019-01-26T13:11:33.089Z,99.90
2019-01-26T13:13:41.926Z,99.90
2019-01-26T13:15:51.419Z,99.90
2019-01-26T13:18:01.382Z,99.90
2019-01-26T13:20:08.883Z,99.90
2019-01-26T13:22:16.315Z,99.90
2019-01-26T13:24:24.810Z,99.90
2019-01-26T13:26:41.970Z,99.90
2019-01-26T13:28:56.674Z,99.90
2019-01-26T13:31:06.631Z,99.90
2019-01-26T13:33:17.158Z,99.90
2019-01-26T13:35:25.494Z,99.90
2019-01-26T13:37:33.778Z,99.90
2019-01-26T13:39:45.408Z,99.90
2019-01-26T13:41:54.310Z,99.90
2019-01-26T13:44:05.067Z,99.90
2019-01-26T13:46:14.310Z,99.90
2019-01-26T13:48:22.766Z,99.90
2019-01-26T13:50:32.699Z,99.90
2019-01-26T13:52:45.530Z,99.90
2019-01-26T13:54:55.734Z,99.90
2019-01-26T13:57:04.691Z,99.90
2019-01-26T13:59:13.543Z,99.90
2019-01-26T14:01:21.500Z,99.90
2019-01-26T14:03:37.527Z,99.90
2019-01-26T14:05:50.679Z,99.90
2019-01-26T14:07:57.746Z,99.90
2019-01-26T14:10:06.231Z,99.90
2019-01-26T14:12:12.254Z,99.90
2019-01-26T14:14:19.656Z,99.90
2019-01-26T14:16:29.446Z,99.90
2019-01-26T14:18:43.178Z,99.90
2019-01-26T14:20:50.093Z,99.90
2019-01-26T14:22:58.277Z,99.90
2019-01-26T14:25:06.214Z,99.90
2019-01-26T14:27:15.286Z,99.90
2019-01-26T14:29:22.326Z,99.90
2019-01-26T14:31:33.323Z,99.90
2019-01-26T14:33:43.312Z,99.90
2019-01-26T14:35:53.150Z,99.90
2019-01-26T14:38:03.102Z,99.90
2019-01-26T14:40:12.730Z,99.90
2019-01-26T14:42:21.550Z,99.90
2019-01-26T14:44:29.262Z,99.90
2019-01-26T14:46:40.135Z,99.90
2019-01-26T14:48:50.090Z,99.90
2019-01-26T14:50:58.966Z,99.90
2019-01-26T14:53:07.947Z,99.90
2019-01-26T14:55:17.828Z,99.90
2019-01-26T14:57:29.026Z,99.90
2019-01-26T14:59:43.159Z,99.90
2019-01-26T15:01:53.196Z,99.90
2019-01-26T15:04:02.078Z,99.90
2019-01-26T15:06:12.010Z,99.90
2019-01-26T15:08:22.895Z,99.90
2019-01-26T15:10:37.423Z,99.90
2019-01-26T15:12:45.302Z,99.90
2019-01-26T15:14:55.308Z,99.90
2019-01-26T15:17:04.238Z,99.90
2019-01-26T15:19:17.894Z,99.90
2019-01-26T15:21:26.893Z,99.90
2019-01-26T15:23:35.304Z,99.90
2019-01-26T15:25:43.579Z,99.90
2019-01-26T15:27:52.057Z,99.90
2019-01-26T15:30:03.305Z,99.90
2019-01-26T15:32:15.059Z,99.90
2019-01-26T15:34:24.710Z,99.90
2019-01-26T15:36:32.427Z,99.90
2019-01-26T15:38:43.082Z,99.90
2019-01-26T15:40:51.882Z,99.90
2019-01-26T15:43:00.564Z,99.90
2019-01-26T15:45:11.061Z,99.90
2019-01-26T15:47:22.159Z,99.90
2019-01-26T15:49:32.082Z,99.90
2019-01-26T15:51:40.972Z,99.90
2019-01-26T15:53:50.634Z,99.90
2019-01-26T15:56:00.459Z,99.90
2019-01-26T15:58:09.560Z,99.90
2019-01-26T16:00:31.751Z,99.90
2019-01-26T16:02:37.990Z,99.90
2019-01-26T16:04:43.586Z,99.90
2019-01-26T16:06:51.522Z,99.90
2019-01-26T16:09:01.767Z,99.90
2019-01-26T16:11:11.672Z,99.90
2019-01-26T16:13:18.997Z,99.90
2019-01-26T16:15:25.674Z,99.90
2019-01-26T16:17:36.010Z,99.90
2019-01-26T16:19:44.378Z,99.90
2019-01-26T16:21:54.250Z,99.90
2019-01-26T16:24:03.065Z,99.90
2019-01-26T16:26:11.502Z,99.90
2019-01-26T16:28:22.859Z,99.90
2019-01-26T16:30:33.563Z,99.90
2019-01-26T16:32:42.451Z,99.90
2019-01-26T16:34:55.164Z,99.90
2019-01-26T16:37:06.987Z,99.90
2019-01-26T16:39:17.679Z,99.90
2019-01-26T16:41:26.006Z,99.90
2019-01-26T16:43:35.555Z,99.90
2019-01-26T16:45:45.579Z,99.90
2019-01-26T16:47:52.948Z,99.90
2019-01-26T16:50:02.331Z,99.90
2019-01-26T16:52:15.356Z,99.90
2019-01-26T16:54:24.694Z,99.90
2019-01-26T16:56:35.454Z,99.90
2019-01-26T16:58:44.102Z,99.90
2019-01-26T17:00:53.066Z,99.90
2019-01-26T17:03:01.627Z,99.90
2019-01-26T17:05:12.372Z,99.90
2019-01-26T17:07:24.831Z,99.90
2019-01-26T17:09:36.815Z,99.90
2019-01-26T17:11:46.699Z,99.90
2019-01-26T17:13:58.456Z,99.90
2019-01-26T17:16:06.439Z,99.90
2019-01-26T17:18:19.373Z,99.90
2019-01-26T17:20:34.826Z,99.90
2019-01-26T17:22:39.670Z,99.90
2019-01-26T17:24:49.878Z,99.90
2019-01-26T17:26:59.831Z,99.90
2019-01-26T17:29:05.146Z,99.90
2019-01-26T17:31:14.200Z,99.90
2019-01-26T17:33:19.903Z,99.90
2019-01-26T17:35:27.899Z,99.90
2019-01-26T17:37:37.947Z,99.90
2019-01-26T17:39:50.086Z,99.90
2019-01-26T17:41:59.018Z,99.90
2019-01-26T17:44:07.954Z,99.90
2019-01-26T17:46:18.074Z,99.90
2019-01-26T17:48:25.421Z,99.90
2019-01-26T17:50:41.903Z,99.90
2019-01-26T17:52:45.435Z,99.90
2019-01-26T17:54:53.946Z,99.90
2019-01-26T17:57:02.891Z,99.90
2019-01-26T17:59:13.642Z,99.90
2019-01-26T18:01:22.504Z,99.90
2019-01-26T18:03:33.063Z,99.90
2019-01-26T18:05:43.881Z,99.90
2019-01-26T18:07:52.680Z,99.90
2019-01-26T18:10:01.991Z,99.90
2019-01-26T18:12:10.854Z,99.90
2019-01-26T18:14:18.641Z,99.90
2019-01-26T18:16:29.866Z,99.90
2019-01-26T18:18:37.694Z,99.90
2019-01-26T18:20:50.608Z,99.90
2019-01-26T18:23:00.710Z,99.90
2019-01-26T18:25:11.331Z,99.90
2019-01-26T18:27:20.661Z,99.90
2019-01-26T18:29:28.330Z,99.90
2019-01-26T18:31:36.721Z,99.90
2019-01-26T18:33:45.484Z,99.90
2019-01-26T18:35:56.328Z,99.90
2019-01-26T18:38:11.002Z,99.90
2019-01-26T18:40:25.866Z,99.90
2019-01-26T18:42:37.047Z,99.90
2019-01-26T18:44:46.439Z,99.90
2019-01-26T18:46:56.397Z,99.90
2019-01-26T18:49:05.094Z,99.90
2019-01-26T18:51:13.799Z,99.90
2019-01-26T18:53:21.244Z,99.90
2019-01-26T18:55:34.956Z,99.90
2019-01-26T18:57:43.626Z,99.90
2019-01-26T18:59:52.935Z,99.90
2019-01-26T19:02:02.286Z,99.90
2019-01-26T19:04:18.602Z,99.90
2019-01-26T19:06:28.787Z,99.90
2019-01-26T19:08:39.914Z,99.90
2019-01-26T19:10:47.613Z,99.90
2019-01-26T19:12:53.794Z,99.90
2019-01-26T19:15:00.679Z,99.90
2019-01-26T19:17:14.579Z,99.90
2019-01-26T19:19:24.426Z,99.90
2019-01-26T19:21:33.446Z,99.90
2019-01-26T19:23:42.291Z,99.90
2019-01-26T19:25:51.490Z,99.90
2019-01-26T19:28:00.430Z,99.90
2019-01-26T19:30:10.401Z,99.90
2019-01-26T19:32:20.103Z,99.90
2019-01-26T19:34:28.539Z,99.90
2019-01-26T19:36:37.783Z,99.90
2019-01-26T19:38:47.719Z,99.90
2019-01-26T19:40:55.922Z,99.90
2019-01-26T19:43:03.674Z,99.90
2019-01-26T19:45:14.890Z,99.90
2019-01-26T19:47:22.706Z,99.90
2019-01-26T19:49:33.942Z,99.90
2019-01-26T19:51:46.850Z,99.90
2019-01-26T19:53:54.902Z,99.90
2019-01-26T19:56:03.826Z,99.90
2019-01-26T19:58:12.029Z,99.90
2019-01-26T20:00:23.210Z,99.90
2019-01-26T20:02:30.862Z,99.90
2019-01-26T20:04:39.882Z,99.90
2019-01-26T20:06:49.532Z,99.90
2019-01-26T20:09:01.308Z,99.90
2019-01-26T20:11:12.634Z,99.90
2019-01-26T20:13:24.598Z,99.90
2019-01-26T20:15:34.369Z,99.90
2019-01-26T20:17:44.328Z,99.90
2019-01-26T20:19:51.708Z,99.90
2019-01-26T20:22:02.360Z,99.90
2019-01-26T20:24:12.775Z,99.90
2019-01-26T20:26:24.678Z,99.90
2019-01-26T20:28:34.732Z,99.90
2019-01-26T20:30:44.167Z,99.90
2019-01-26T20:32:52.482Z,99.90
2019-01-26T20:35:01.821Z,99.90
2019-01-26T20:37:12.107Z,99.90
2019-01-26T20:39:20.670Z,99.90
2019-01-26T20:41:33.587Z,99.90
2019-01-26T20:43:42.966Z,99.90
2019-01-26T20:45:51.883Z,99.90
2019-01-26T20:48:02.131Z,99.90
2019-01-26T20:50:11.914Z,99.90
2019-01-26T20:52:23.754Z,99.90
2019-01-26T20:54:33.731Z,99.90
2019-01-26T20:56:42.098Z,99.90
2019-01-26T20:58:52.878Z,99.90
2019-01-26T21:01:01.831Z,99.90
2019-01-26T21:03:11.334Z,99.90
2019-01-26T21:05:19.147Z,99.90
2019-01-26T21:07:27.115Z,99.90
2019-01-26T21:09:39.046Z,99.90
2019-01-26T21:11:51.895Z,99.90
2019-01-26T21:14:02.428Z,99.90
2019-01-26T21:16:10.635Z,99.90
2019-01-26T21:18:18.602Z,99.90
2019-01-26T21:20:28.290Z,99.90
2019-01-26T21:22:37.128Z,99.90
2019-01-26T21:24:47.335Z,99.90
2019-01-26T21:26:56.255Z,99.90
2019-01-26T21:29:05.226Z,99.90
2019-01-26T21:31:13.563Z,99.90
2019-01-26T21:33:20.491Z,99.90
2019-01-26T21:35:28.870Z,99.90
2019-01-26T21:37:37.695Z,99.90
2019-01-26T21:39:50.506Z,99.90
2019-01-26T21:42:00.268Z,99.90
2019-01-26T21:44:13.339Z,99.90
2019-01-26T21:46:20.587Z,99.90
2019-01-26T21:48:27.639Z,99.90
2019-01-26T21:50:37.814Z,99.90
2019-01-26T21:52:43.375Z,99.90
2019-01-26T21:54:50.283Z,99.90
2019-01-26T21:57:00.167Z,99.90
2019-01-26T21:59:09.663Z,99.90
2019-01-26T22:01:17.422Z,99.90
2019-01-26T22:03:29.207Z,99.90
2019-01-26T22:05:45.121Z,99.90
2019-01-26T22:07:56.038Z,99.90
2019-01-26T22:10:04.555Z,99.90
2019-01-26T22:12:13.256Z,99.90
2019-01-26T22:14:22.075Z,99.90
2019-01-26T22:16:30.407Z,99.90
2019-01-26T22:18:39.219Z,99.90
2019-01-26T22:20:46.514Z,99.90
2019-01-26T22:22:55.602Z,99.90
2019-01-26T22:25:04.615Z,99.90
2019-01-26T22:27:13.514Z,99.90
2019-01-26T22:29:22.533Z,99.90
2019-01-26T22:31:31.292Z,99.90
2019-01-26T22:33:38.428Z,99.90
2019-01-26T22:35:48.316Z,99.90
2019-01-26T22:37:58.823Z,99.90
2019-01-26T22:40:05.832Z,99.90
2019-01-26T22:42:16.106Z,99.90
2019-01-26T22:44:24.728Z,99.90
2019-01-26T22:46:34.759Z,99.90
2019-01-26T22:48:43.532Z,99.90
2019-01-26T22:51:01.109Z,99.90
2019-01-26T22:53:10.566Z,99.90
2019-01-26T22:55:23.720Z,99.90
2019-01-26T22:57:32.032Z,99.90
2019-01-26T22:59:43.227Z,99.90
2019-01-26T23:01:52.691Z,99.90
2019-01-26T23:04:23.579Z,99.90
2019-01-26T23:07:23.863Z,99.90
2019-01-26T23:10:01.102Z,99.90
2019-01-26T23:12:23.883Z,99.90
2019-01-26T23:15:30.998Z,99.90
2019-01-26T23:18:25.027Z,99.90
2019-01-26T23:21:04.306Z,99.90
2019-01-26T23:24:07.223Z,99.90
2019-01-26T23:26:50.246Z,99.90
2019-01-26T23:29:23.703Z,99.90
2019-01-26T23:31:29.410Z,99.90
2019-01-26T23:33:41.590Z,99.90
2019-01-26T23:35:50.982Z,99.90
2019-01-26T23:38:00.055Z,99.90
2019-01-26T23:40:08.263Z,99.90
2019-01-26T23:42:14.615Z,99.90
2019-01-26T23:44:22.422Z,99.90
2019-01-26T23:46:31.341Z,99.90
2019-01-26T23:48:41.913Z,99.90
2019-01-26T23:50:52.995Z,99.90
2019-01-26T23:53:04.119Z,99.90
2019-01-26T23:55:14.591Z,99.90
2019-01-26T23:57:21.279Z,99.90
2019-01-26T23:59:27.082Z,99.90
